Latest Weather Observations for Creal Reef

IDQ60801

Issued at 8:05 am EST Monday 22 September 2014 (issued every 30 minutes, with the page automatically refreshed every 10 minutes)

About weather observations | Map of weather stations | Latest weather observations for QLD | Other Formats
Station Details ID: 200736 Name: CREAL REEF Lat: -20.53 Lon: 150.38 Height: 1.7 m
Data from the previous 72 hours. | See also: Recent months for locations in Queensland
Date/Time
EST
Temp
°C
App
Temp
°C
Dew
Point
Rel
Hum
%
Delta-T
°C
Wind Press
QNH
hPa
Press
MSL
hPa
Rain
since 9 am
mm
Dir
 
Spd
km/h
Gust
km/h
Spd
kts
Gust
kts
22/08:00am 21.9 - - - - ESE 28 33 15 18 1019.3 - -
22/07:30am 22.0 - - - - E 37 43 20 23 1019.1 - -
22/07:20am 21.7 - - - - ESE 35 - 19 - - 1019.0 -
22/07:00am 21.7 - - - - E 39 46 21 25 1018.8 - -
22/06:30am 22.0 - - - - E 39 52 21 28 1018.1 - -
22/06:20am 22.7 - - - - E 35 - 19 - - 1017.8 -
22/06:00am 22.9 - - - - E 37 41 20 22 1018.0 - -
22/05:30am 22.7 - - - - E 35 43 19 23 1017.6 - -
22/05:20am 22.7 - - - - E 37 - 20 - - 1017.4 -
22/05:00am 22.7 - - - - E 41 48 22 26 1017.5 - -
22/04:30am 22.7 - - - - E 41 46 22 25 1017.2 - -
22/04:20am 22.7 - - - - E 39 - 21 - - 1017.0 -
22/04:00am 22.8 - - - - E 43 48 23 26 1017.0 - -
22/03:30am 22.4 - - - - E 44 52 24 28 1017.2 - -
22/03:20am 22.4 - - - - E 43 - 23 - - 1017.2 -
22/03:00am 22.5 - - - - E 46 50 25 27 1017.5 - -
22/02:30am 22.6 - - - - E 44 54 24 29 1017.6 - -
22/02:20am 22.6 - - - - E 41 - 22 - - 1017.7 -
22/02:00am 22.6 - - - - E 43 50 23 27 1018.1 - -
22/01:30am 22.7 - - - - E 46 56 25 30 1018.2 - -
22/01:20am 22.7 - - - - E 48 - 26 - - 1018.1 -
22/01:00am 22.7 - - - - E 48 56 26 30 1018.3 - -
22/12:30am 22.8 - - - - E 43 50 23 27 1018.8 - -
22/12:20am 22.8 - - - - E 44 - 24 - - 1018.8 -
22/12:00am 22.8 - - - - E 41 46 22 25 1019.2 - -
 
Date/Time
EST
Temp
°C
App
Temp
°C
Dew
Point
Rel
Hum
%
Delta-T
°C
Wind Press
QNH
hPa
Press
MSL
hPa
Rain
since 9 am
mm
Dir
 
Spd
km/h
Gust
km/h
Spd
kts
Gust
kts
21/11:30pm 22.8 - - - - E 39 46 21 25 1019.6 - -
21/11:20pm 22.9 - - - - E 41 - 22 - - 1019.6 -
21/11:00pm 22.7 - - - - E 41 48 22 26 1019.8 - -
21/10:30pm 22.6 - - - - ESE 37 44 20 24 1019.7 - -
21/10:20pm 22.6 - - - - ESE 39 - 21 - - 1019.7 -
21/10:00pm 22.6 - - - - ESE 41 48 22 26 1019.9 - -
21/09:30pm 22.8 - - - - E 39 48 21 26 1019.8 - -
21/09:20pm 23.0 - - - - E 43 - 23 - - 1019.8 -
21/09:00pm 22.8 - - - - ESE 43 50 23 27 1019.7 - -
21/08:30pm 22.6 - - - - E 41 48 22 26 1019.3 - -
21/08:20pm 23.0 - - - - E 43 - 23 - - 1019.0 -
21/08:00pm 22.9 - - - - ESE 39 46 21 25 1019.0 - -
21/07:30pm 22.8 - - - - ESE 37 43 20 23 1019.3 - -
21/07:20pm 22.9 - - - - ESE 39 - 21 - - 1019.2 -
21/07:00pm 22.7 - - - - ESE 39 46 21 25 1019.1 - -
21/06:30pm 22.7 - - - - E 39 46 21 25 1018.9 - -
21/06:20pm 22.8 - - - - E 39 - 21 - - 1018.7 -
21/06:00pm 22.7 - - - - E 37 43 20 23 1018.7 - -
21/05:30pm 22.9 - - - - E 37 41 20 22 1018.7 - -
21/05:20pm 22.8 - - - - E 35 - 19 - - 1018.5 -
21/05:00pm 23.0 - - - - E 33 37 18 20 1018.3 - -
21/04:30pm 23.1 - - - - ESE 35 41 19 22 1018.3 - -
21/04:20pm 23.0 - - - - ESE 35 - 19 - - 1018.3 -
21/04:00pm 23.0 - - - - ESE 35 39 19 21 1018.3 - -
21/03:30pm 23.0 - - - - ESE 33 43 18 23 1018.2 - -
21/03:20pm 23.1 - - - - ESE 37 - 20 - - 1018.0 -
21/03:00pm 23.1 - - - - E 37 43 20 23 1018.1 - -
21/02:30pm 23.0 - - - - E 41 46 22 25 1018.0 - -
21/02:20pm 22.9 - - - - ESE 39 - 21 - - 1017.9 -
21/02:00pm 22.9 - - - - ESE 37 43 20 23 1018.2 - -
21/01:30pm 22.9 - - - - ESE 39 46 21 25 1018.3 - -
21/01:20pm 23.0 - - - - E 39 - 21 - - 1018.3 -
21/01:00pm 23.0 - - - - E 41 50 22 27 1018.5 - -
21/12:30pm 22.9 - - - - E 39 46 21 25 1018.8 - -
21/12:20pm 23.0 - - - - E 41 - 22 - - 1018.8 -
21/12:00pm 22.9 - - - - E 37 44 20 24 1019.3 - -
21/11:30am 22.8 - - - - E 39 44 21 24 1019.5 - -
21/11:20am 22.7 - - - - E 39 - 21 - - 1019.5 -
21/11:00am 22.8 - - - - E 41 48 22 26 1019.6 - -
21/10:30am 22.8 - - - - E 39 46 21 25 1019.9 - -
21/10:20am 22.9 - - - - E 39 - 21 - - 1020.0 -
21/10:00am 22.7 - - - - ESE 41 46 22 25 1020.1 - -
21/09:30am 22.9 - - - - ESE 39 46 21 25 1020.3 - -
21/09:20am 22.8 - - - - ESE 37 - 20 - - 1020.2 -
21/09:00am 23.0 - - - - E 33 43 18 23 1020.4 - -
21/08:30am 22.8 - - - - E 37 41 20 22 1020.3 - -
21/08:20am 22.7 - - - - ESE 39 - 21 - - 1020.1 -
21/08:00am 22.8 - - - - E 32 37 17 20 1020.0 - -
21/07:30am 22.6 - - - - E 33 37 18 20 1019.7 - -
21/07:20am 22.5 - - - - E 32 - 17 - - 1019.4 -
21/07:00am 22.5 - - - - E 33 39 18 21 1019.2 - -
21/06:30am 22.5 - - - - E 32 35 17 19 1018.7 - -
21/06:20am 22.6 - - - - E 32 - 17 - - 1018.6 -
21/06:00am 22.5 - - - - E 32 37 17 20 1018.5 - -
21/05:30am 22.5 - - - - E 30 35 16 19 1018.0 - -
21/05:20am 22.7 - - - - E 30 - 16 - - 1017.8 -
21/05:00am 22.6 - - - - E 33 39 18 21 1017.6 - -
21/04:30am 22.4 - - - - ESE 32 35 17 19 1017.1 - -
21/04:20am 22.4 - - - - ESE 32 - 17 - - 1017.0 -
21/04:00am 22.5 - - - - E 32 33 17 18 1016.8 - -
21/03:30am 22.5 - - - - E 28 32 15 17 1016.7 - -
21/03:20am 22.3 - - - - E 28 - 15 - - 1016.5 -
21/03:00am 22.5 - - - - E 32 35 17 19 1016.8 - -
21/02:30am 22.5 - - - - E 32 35 17 19 1017.0 - -
21/02:20am 22.6 - - - - E 32 - 17 - - 1017.0 -
21/02:00am 22.5 - - - - E 32 37 17 20 1017.3 - -
21/01:30am 22.8 - - - - E 33 37 18 20 1017.6 - -
21/01:20am 22.6 - - - - E 32 - 17 - - 1017.7 -
21/01:00am 22.7 - - - - E 32 35 17 19 1018.0 - -
21/12:30am 22.7 - - - - E 32 37 17 20 1018.2 - -
21/12:20am 22.7 - - - - E 32 - 17 - - 1018.2 -
21/12:00am 22.8 - - - - E 32 35 17 19 1018.3 - -
 
Date/Time
EST
Temp
°C
App
Temp
°C
Dew
Point
Rel
Hum
%
Delta-T
°C
Wind Press
QNH
hPa
Press
MSL
hPa
Rain
since 9 am
mm
Dir
 
Spd
km/h
Gust
km/h
Spd
kts
Gust
kts
20/11:30pm 22.7 - - - - E 33 39 18 21 1018.6 - -
20/11:20pm 22.8 - - - - E 35 - 19 - - 1018.5 -
20/11:00pm 22.9 - - - - E 33 41 18 22 1018.6 - -
20/10:30pm 22.8 - - - - E 35 41 19 22 1018.7 - -
20/10:20pm 22.8 - - - - ESE 35 - 19 - - 1018.6 -
20/10:00pm 22.9 - - - - E 35 41 19 22 1018.7 - -
20/09:30pm 22.8 - - - - ESE 37 44 20 24 1018.6 - -
20/09:20pm 22.8 - - - - ESE 37 - 20 - - 1018.3 -
20/09:00pm 22.8 - - - - ESE 37 43 20 23 1018.4 - -
20/08:30pm 22.8 - - - - ESE 41 46 22 25 1018.2 - -
20/08:20pm 22.7 - - - - ESE 39 - 21 - - 1018.0 -
20/08:00pm 22.7 - - - - E 41 46 22 25 1018.0 - -
20/07:30pm 22.7 - - - - ESE 39 46 21 25 1017.8 - -
20/07:20pm 22.7 - - - - ESE 39 - 21 - - 1017.6 -
20/07:00pm 22.7 - - - - ESE 37 41 20 22 1017.6 - -
20/06:30pm 22.8 - - - - E 33 39 18 21 1017.3 - -
20/06:20pm 22.9 - - - - E 35 - 19 - - 1017.1 -
20/06:00pm 22.6 - - - - E 33 39 18 21 1016.8 - -
20/05:30pm 22.9 - - - - E 32 35 17 19 1016.3 - -
20/05:20pm 22.8 - - - - E 32 - 17 - - 1016.0 -
20/05:00pm 22.8 - - - - ESE 30 33 16 18 1015.7 - -
20/04:30pm 22.9 - - - - ESE 28 32 15 17 1015.4 - -
20/04:20pm 22.7 - - - - ESE 30 - 16 - - 1015.3 -
20/04:00pm 22.7 - - - - ESE 28 32 15 17 1015.4 - -
20/03:30pm 22.9 - - - - ESE 28 32 15 17 1015.1 - -
20/03:20pm 23.0 - - - - ESE 26 - 14 - - 1015.1 -
20/03:00pm 23.0 - - - - SE 22 26 12 14 1015.2 - -
20/02:30pm 22.8 - - - - SE 22 24 12 13 1015.2 - -
20/02:20pm 23.0 - - - - SE 22 - 12 - - 1015.3 -
20/02:00pm 22.8 - - - - ESE 20 22 11 12 1015.6 - -
20/01:30pm 22.8 - - - - SE 20 24 11 13 1016.2 - -
20/01:20pm 23.0 - - - - SE 20 - 11 - - 1016.3 -
20/01:00pm 23.0 - - - - SE 19 20 10 11 1016.7 - -
20/12:30pm 23.0 - - - - SE 17 19 9 10 1017.1 - -
20/12:20pm 23.0 - - - - SE 17 - 9 - - 1017.1 -
20/12:00pm 23.0 - - - - SE 17 19 9 10 1017.4 - -
20/11:30am 23.0 - - - - SSE 13 17 7 9 1017.9 - -
20/11:20am 23.2 - - - - SSE 13 - 7 - - 1017.8 -
20/11:00am 23.1 - - - - SSE 11 15 6 8 1018.1 - -
20/10:30am 23.1 - - - - SSE 9 13 5 7 1018.4 - -
20/10:20am 23.2 - - - - SE 9 - 5 - - 1018.4 -
20/10:00am 23.2 - - - - SE 9 11 5 6 1018.6 - -
20/09:30am 24.2 - - - - E 2 7 1 4 1018.6 - -
20/09:20am 24.5 - - - - CALM 0 - 0 - - 1018.6 -
20/09:00am 24.1 - - - - CALM 0 0 0 0 1018.7 - -
20/08:30am 24.0 - - - - CALM 0 0 0 0 1018.6 - -
20/08:20am 24.1 - - - - CALM 0 - 0 - - 1018.4 -
20/08:00am 23.7 - - - - E 2 6 1 3 1018.3 - -
20/07:30am 23.4 - - - - E 6 9 3 5 1017.9 - -
20/07:20am 23.5 - - - - E 7 - 4 - - 1017.7 -
20/07:00am 23.0 - - - - ENE 9 11 5 6 1017.5 - -
20/06:30am 22.7 - - - - ENE 11 13 6 7 1017.1 - -
20/06:20am 22.6 - - - - ENE 9 - 5 - - 1016.8 -
20/06:00am 22.4 - - - - ENE 11 13 6 7 1016.8 - -
20/05:30am 22.4 - - - - ENE 13 15 7 8 1016.5 - -
20/05:20am 22.3 - - - - ENE 13 - 7 - - 1016.2 -
20/05:00am 22.3 - - - - ENE 15 17 8 9 1016.1 - -
20/04:30am 22.3 - - - - ENE 17 19 9 10 1015.9 - -
20/04:20am 22.4 - - - - ENE 17 - 9 - - 1015.8 -
20/04:00am 22.4 - - - - ENE 17 20 9 11 1015.7 - -
20/03:30am 22.6 - - - - ENE 20 22 11 12 1015.7 - -
20/03:20am 22.5 - - - - ENE 20 - 11 - - 1015.6 -
20/03:00am 22.6 - - - - ENE 20 26 11 14 1015.8 - -
20/02:30am 22.6 - - - - NE 22 26 12 14 1016.1 - -
20/02:20am 22.5 - - - - NE 22 - 12 - - 1016.0 -
20/02:00am 22.8 - - - - NE 24 28 13 15 1016.4 - -
20/01:30am 22.8 - - - - NE 24 28 13 15 1016.7 - -
20/01:20am 22.7 - - - - NE 26 - 14 - - 1016.7 -
20/01:00am 22.7 - - - - NE 28 32 15 17 1016.9 - -
20/12:30am 22.8 - - - - ENE 30 32 16 17 1017.3 - -
20/12:20am 22.8 - - - - ENE 30 - 16 - - 1017.4 -
20/12:00am 22.7 - - - - ENE 28 33 15 18 1017.6 - -
 
Date/Time
EST
Temp
°C
App
Temp
°C
Dew
Point
Rel
Hum
%
Delta-T
°C
Wind Press
QNH
hPa
Press
MSL
hPa
Rain
since 9 am
mm
Dir
 
Spd
km/h
Gust
km/h
Spd
kts
Gust
kts
19/11:30pm 22.9 - - - - ENE 30 33 16 18 1017.9 - -
19/11:20pm 22.8 - - - - ENE 28 - 15 - - 1017.7 -
19/11:00pm 22.8 - - - - E 32 35 17 19 1017.9 - -
19/10:30pm 22.9 - - - - ENE 32 35 17 19 1018.2 - -
19/10:20pm 22.8 - - - - E 30 - 16 - - 1018.1 -
19/10:00pm 22.8 - - - - E 32 35 17 19 1018.2 - -
19/09:30pm 22.6 - - - - E 28 32 15 17 1018.4 - -
19/09:20pm 22.7 - - - - E 30 - 16 - - 1018.3 -
19/09:00pm 22.8 - - - - E 30 33 16 18 1018.3 - -
19/08:30pm 22.6 - - - - E 30 33 16 18 1018.2 - -
19/08:20pm 22.6 - - - - E 28 - 15 - - 1018.1 -
19/08:00pm 22.5 - - - - E 30 32 16 17 1018.0 - -
19/07:30pm 22.5 - - - - E 30 33 16 18 1017.7 - -
19/07:20pm 22.5 - - - - E 28 - 15 - - 1017.5 -
19/07:00pm 22.6 - - - - ESE 24 30 13 16 1017.6 - -
19/06:30pm 22.3 - - - - ESE 24 30 13 16 1017.2 - -
19/06:20pm 22.4 - - - - ESE 22 - 12 - - 1017.1 -
19/06:00pm 22.2 - - - - ESE 22 26 12 14 1017.1 - -
19/05:30pm 22.5 - - - - ESE 22 26 12 14 1016.7 - -
19/05:20pm 22.4 - - - - ESE 22 - 12 - - 1016.5 -
19/05:00pm 22.4 - - - - SE 20 24 11 13 1016.3 - -
19/04:30pm 22.5 - - - - SE 19 22 10 12 1016.3 - -
19/04:20pm 22.5 - - - - SE 19 - 10 - - 1015.9 -
19/04:00pm 22.3 - - - - SE 19 20 10 11 1016.0 - -
19/03:30pm 22.4 - - - - SE 19 20 10 11 1015.8 - -
19/03:20pm 22.5 - - - - SSE 17 - 9 - - 1015.7 -
19/03:00pm 22.5 - - - - SE 19 20 10 11 1015.7 - -
19/02:30pm 22.8 - - - - SSE 17 20 9 11 1015.9 - -
19/02:20pm 22.7 - - - - SSE 17 - 9 - - 1015.9 -
19/02:00pm 22.7 - - - - SSE 17 20 9 11 1016.0 - -
19/01:30pm 22.6 - - - - SE 19 20 10 11 1016.4 - -
19/01:20pm 22.2 - - - - SE 17 - 9 - - 1016.4 -
19/01:00pm 22.2 - - - - SSE 19 24 10 13 1016.7 - -
19/12:30pm 22.6 - - - - SSE 17 20 9 11 1017.3 - -
19/12:20pm 22.6 - - - - SSE 17 - 9 - - 1017.3 -
19/12:00pm 22.4 - - - - SSE 15 20 8 11 1017.8 - -
19/11:30am 22.5 - - - - SSE 15 19 8 10 1018.5 - -
19/11:20am 22.4 - - - - SE 15 - 8 - - 1018.7 -
19/11:00am 22.5 - - - - SE 15 19 8 10 1019.1 - -
19/10:30am 22.3 - - - - SE 15 20 8 11 1019.3 - -
19/10:20am 22.4 - - - - SE 17 - 9 - - 1019.3 -
19/10:00am 22.4 - - - - SE 15 17 8 9 1019.4 - -
19/09:30am 22.5 - - - - SE 15 19 8 10 1019.5 - -
19/09:20am 22.5 - - - - SE 15 - 8 - - 1019.4 -
19/09:00am 22.6 - - - - ESE 13 17 7 9 1019.5 - -
19/08:30am 22.3 - - - - SE 15 17 8 9 1019.5 - -
19/08:20am 22.5 - - - - SE 15 - 8 - - 1019.3 -

Other Formats:

Comma delimited format used in spreadsheet applications
http://www.bom.gov.au/fwo/IDQ60801/IDQ60801.94371.axf

JavaScript Object Notation format (JSON) in row-major order
http://www.bom.gov.au/fwo/IDQ60801/IDQ60801.94371.json